createdAt,value
2018-08-06T00:00:41.804Z,28.12
2018-08-06T00:03:07.860Z,28.04
2018-08-06T00:05:33.995Z,28.64
2018-08-06T00:08:00.216Z,28.40
2018-08-06T00:10:26.340Z,28.69
2018-08-06T00:12:52.435Z,28.60
2018-08-06T00:15:18.509Z,28.08
2018-08-06T00:17:44.616Z,28.20
2018-08-06T00:20:10.740Z,28.36
2018-08-06T00:22:36.814Z,28.35
2018-08-06T00:25:02.914Z,28.02
2018-08-06T00:27:29.032Z,28.03
2018-08-06T00:29:55.089Z,28.55
2018-08-06T00:32:21.664Z,28.09
2018-08-06T00:34:47.783Z,27.91
2018-08-06T00:37:13.861Z,27.84
2018-08-06T00:39:40.012Z,27.83
2018-08-06T00:42:06.731Z,28.30
2018-08-06T00:44:32.828Z,28.36
2018-08-06T00:46:59.013Z,27.86
2018-08-06T00:49:25.236Z,28.15
2018-08-06T00:51:51.332Z,28.32
2018-08-06T00:54:17.453Z,28.46
2018-08-06T00:56:43.602Z,28.07
2018-08-06T00:59:09.732Z,28.20
2018-08-06T01:01:35.928Z,27.75
2018-08-06T01:04:02.022Z,28.51
2018-08-06T01:06:28.101Z,27.83
2018-08-06T01:08:54.229Z,27.44
2018-08-06T01:11:20.999Z,27.68
2018-08-06T01:13:47.097Z,27.02
2018-08-06T01:16:13.259Z,27.45
2018-08-06T01:18:39.303Z,26.77
2018-08-06T01:21:05.406Z,26.70
2018-08-06T01:23:31.453Z,27.01
2018-08-06T01:25:57.558Z,27.24
2018-08-06T01:28:23.634Z,27.39
2018-08-06T01:30:49.678Z,27.79
2018-08-06T01:33:15.743Z,27.28
2018-08-06T01:35:41.794Z,27.57
2018-08-06T01:38:07.834Z,27.00
2018-08-06T01:40:33.953Z,27.25
2018-08-06T01:43:00.016Z,26.90
2018-08-06T01:45:26.077Z,26.90
2018-08-06T01:47:52.221Z,27.06
2018-08-06T01:50:18.319Z,27.23
2018-08-06T01:52:44.415Z,27.32
2018-08-06T01:55:10.473Z,27.11
2018-08-06T01:57:36.540Z,27.18
2018-08-06T02:00:02.641Z,27.62
2018-08-06T02:02:28.778Z,27.69
2018-08-06T02:04:54.956Z,27.15
2018-08-06T02:07:21.064Z,26.89
2018-08-06T02:09:47.174Z,26.60
2018-08-06T02:12:13.253Z,26.94
2018-08-06T02:14:39.329Z,27.18
2018-08-06T02:17:05.417Z,27.29
2018-08-06T02:19:31.531Z,27.31
2018-08-06T02:21:57.611Z,27.27
2018-08-06T02:24:23.726Z,27.14
2018-08-06T02:26:49.873Z,26.31
2018-08-06T02:29:16.013Z,26.37
2018-08-06T02:31:42.094Z,26.11
2018-08-06T02:34:08.206Z,26.93
2018-08-06T02:36:34.276Z,26.88
2018-08-06T02:39:00.368Z,26.44
2018-08-06T02:41:26.414Z,27.02
2018-08-06T02:43:52.543Z,26.56
2018-08-06T02:46:18.714Z,26.54
2018-08-06T02:48:44.873Z,26.13
2018-08-06T02:51:10.945Z,26.22
2018-08-06T02:53:42.558Z,26.23
2018-08-06T02:56:08.634Z,26.29
2018-08-06T02:58:34.745Z,25.85
2018-08-06T03:01:00.882Z,26.35
2018-08-06T03:03:27.008Z,26.32
2018-08-06T03:05:53.109Z,26.23
2018-08-06T03:08:19.133Z,26.63
2018-08-06T03:10:45.227Z,26.26
2018-08-06T03:25:48.926Z,26.14
2018-08-06T03:28:14.979Z,26.56
2018-08-06T03:30:41.134Z,26.16
2018-08-06T03:33:07.257Z,25.86
2018-08-06T03:35:33.373Z,26.17
2018-08-06T03:37:59.509Z,26.04
2018-08-06T03:40:25.681Z,26.24
2018-08-06T03:42:51.805Z,26.06
2018-08-06T03:45:17.958Z,25.83
2018-08-06T03:47:44.070Z,25.69
2018-08-06T03:50:10.178Z,25.58
2018-08-06T03:52:37.162Z,25.47
2018-08-06T03:55:03.242Z,25.78
2018-08-06T03:57:29.328Z,26.02
2018-08-06T04:02:28.525Z,25.31
2018-08-06T04:04:54.591Z,25.39
2018-08-06T04:07:20.656Z,25.27
2018-08-06T04:09:46.740Z,25.91
2018-08-06T04:12:12.782Z,25.66
2018-08-06T04:14:38.909Z,25.52
2018-08-06T04:17:04.988Z,25.25
2018-08-06T04:19:31.034Z,25.73
2018-08-06T04:21:57.099Z,25.44
2018-08-06T04:24:23.193Z,25.23
2018-08-06T04:26:49.242Z,24.76
2018-08-06T04:29:15.270Z,25.27
2018-08-06T04:31:41.344Z,25.37
2018-08-06T04:34:07.447Z,24.96
2018-08-06T04:36:33.565Z,25.13
2018-08-06T04:38:59.731Z,25.52
2018-08-06T04:41:25.863Z,25.63
2018-08-06T04:43:52.011Z,25.51
2018-08-06T04:46:18.093Z,25.74
2018-08-06T04:48:44.127Z,25.51
2018-08-06T04:51:10.226Z,25.88
2018-08-06T04:53:36.318Z,26.06
2018-08-06T04:56:02.405Z,26.06
2018-08-06T04:58:28.548Z,26.14
2018-08-06T05:00:54.633Z,26.51
2018-08-06T05:03:20.711Z,26.18
2018-08-06T05:05:46.793Z,26.52
2018-08-06T05:08:12.861Z,26.40
2018-08-06T05:10:38.946Z,26.60
2018-08-06T05:13:05.041Z,26.61
2018-08-06T05:15:31.124Z,26.26
2018-08-06T05:17:57.216Z,25.89
2018-08-06T05:20:23.285Z,25.96
2018-08-06T05:22:49.352Z,25.89
2018-08-06T05:25:15.446Z,26.36
2018-08-06T05:27:41.539Z,26.41
2018-08-06T05:30:07.670Z,26.40
2018-08-06T05:32:33.805Z,26.87
2018-08-06T05:34:59.871Z,26.82
2018-08-06T05:37:26.032Z,26.90
2018-08-06T05:39:52.144Z,27.23
2018-08-06T05:42:18.154Z,27.29
2018-08-06T05:44:44.234Z,27.11
2018-08-06T05:47:10.407Z,26.96
2018-08-06T05:49:36.492Z,27.39
2018-08-06T05:52:02.636Z,27.72
2018-08-06T05:54:28.766Z,27.95
2018-08-06T05:56:54.861Z,27.89
2018-08-06T05:59:21.002Z,28.47
2018-08-06T06:01:47.216Z,28.74
2018-08-06T06:04:13.326Z,28.50
2018-08-06T06:06:39.605Z,28.70
2018-08-06T06:09:05.675Z,28.30
2018-08-06T06:11:31.802Z,28.47
2018-08-06T06:13:57.969Z,28.41
2018-08-06T06:16:24.097Z,28.15
2018-08-06T06:18:50.210Z,27.60
2018-08-06T06:21:16.396Z,28.78
2018-08-06T06:23:42.492Z,28.67
2018-08-06T06:26:08.725Z,29.23
2018-08-06T06:28:34.848Z,29.36
2018-08-06T06:31:00.918Z,29.70
2018-08-06T06:38:32.060Z,30.30
2018-08-06T06:40:58.163Z,30.65
2018-08-06T06:43:24.339Z,30.63
2018-08-06T06:45:51.100Z,30.09
2018-08-06T06:48:18.831Z,30.57
2018-08-06T06:50:45.349Z,30.27
2018-08-06T06:53:11.809Z,29.81
2018-08-06T06:55:38.543Z,30.68
2018-08-06T06:58:05.651Z,30.72
2018-08-06T07:00:31.931Z,31.11
2018-08-06T07:02:58.351Z,30.70
2018-08-06T07:05:24.663Z,30.74
2018-08-06T07:07:50.962Z,30.89
2018-08-06T07:10:17.226Z,31.15
2018-08-06T07:12:43.412Z,31.42
2018-08-06T07:15:09.484Z,31.11
2018-08-06T07:35:18.278Z,31.57
2018-08-06T07:47:51.482Z,29.99
2018-08-06T07:50:17.721Z,31.22
2018-08-06T07:52:43.985Z,31.36
2018-08-06T07:55:10.199Z,31.48
2018-08-06T07:57:36.348Z,31.90
2018-08-06T08:00:03.429Z,31.76
2018-08-06T08:02:29.596Z,31.94
2018-08-06T08:04:55.964Z,31.67
2018-08-06T08:07:22.181Z,31.18
2018-08-06T08:09:48.306Z,31.08
2018-08-06T08:12:15.178Z,31.63
2018-08-06T08:14:41.258Z,32.34
2018-08-06T08:17:07.412Z,31.59
2018-08-06T08:19:33.562Z,31.45
2018-08-06T08:21:59.635Z,32.50
2018-08-06T08:24:25.776Z,31.92
2018-08-06T08:26:51.869Z,31.65
2018-08-06T08:29:18.019Z,32.20
2018-08-06T08:31:44.138Z,32.69
2018-08-06T08:34:10.199Z,32.78
2018-08-06T09:01:49.753Z,31.92
2018-08-06T09:04:16.545Z,31.99
2018-08-06T09:06:42.565Z,31.85
2018-08-06T09:09:08.629Z,32.10
2018-08-06T09:11:34.753Z,32.03
2018-08-06T09:14:00.866Z,31.90
2018-08-06T09:16:27.072Z,31.74
2018-08-06T09:18:53.222Z,31.76
2018-08-06T09:21:19.370Z,31.87
2018-08-06T09:23:45.556Z,31.65
2018-08-06T09:26:11.750Z,31.82
2018-08-06T09:28:38.554Z,31.40
2018-08-06T09:31:05.309Z,31.42
2018-08-06T09:33:31.768Z,31.54
2018-08-06T09:35:58.619Z,31.51
2018-08-06T09:38:25.108Z,31.58
2018-08-06T09:40:51.435Z,31.58
2018-08-06T09:43:17.832Z,31.52
2018-08-06T09:45:45.108Z,31.34
2018-08-06T09:48:11.587Z,31.34
2018-08-06T09:50:37.871Z,31.47
2018-08-06T09:53:04.583Z,31.51
2018-08-06T09:55:31.485Z,31.35
2018-08-06T09:57:57.960Z,31.63
2018-08-06T10:00:25.093Z,31.42
2018-08-06T10:02:51.896Z,31.55
2018-08-06T10:05:18.345Z,31.54
2018-08-06T10:07:45.233Z,31.61
2018-08-06T10:10:11.819Z,31.51
2018-08-06T10:12:38.294Z,31.38
2018-08-06T10:15:04.990Z,31.42
2018-08-06T10:17:31.256Z,31.57
2018-08-06T10:19:57.909Z,31.40
2018-08-06T10:22:24.066Z,31.52
2018-08-06T10:24:50.409Z,31.38
2018-08-06T10:27:16.739Z,31.26
2018-08-06T10:29:42.922Z,31.42
2018-08-06T10:32:09.142Z,31.32
2018-08-06T10:34:36.648Z,31.41
2018-08-06T10:37:02.875Z,31.23
2018-08-06T10:39:29.186Z,31.50
2018-08-06T10:41:55.731Z,31.41
2018-08-06T10:44:21.952Z,31.39
2018-08-06T10:46:48.176Z,31.24
2018-08-06T10:49:14.500Z,31.31
2018-08-06T10:51:40.765Z,31.38
2018-08-06T10:54:07.218Z,31.22
2018-08-06T10:56:33.458Z,31.34
2018-08-06T10:58:59.570Z,31.33
2018-08-06T11:01:25.656Z,31.39
2018-08-06T11:03:51.768Z,31.25
2018-08-06T11:06:19.015Z,31.33
2018-08-06T11:08:45.960Z,31.46
2018-08-06T11:11:12.312Z,31.33
2018-08-06T11:13:38.426Z,31.40
2018-08-06T11:16:04.556Z,31.32
2018-08-06T11:18:30.654Z,31.43
2018-08-06T11:20:56.812Z,31.35
2018-08-06T11:23:22.943Z,31.45
2018-08-06T11:25:49.054Z,31.29
2018-08-06T11:28:15.215Z,31.41
2018-08-06T11:30:41.374Z,31.43
2018-08-06T11:33:08.537Z,31.36
2018-08-06T11:35:34.740Z,31.37
2018-08-06T11:38:01.589Z,31.42
2018-08-06T11:40:27.733Z,31.44
2018-08-06T11:42:53.903Z,31.48
2018-08-06T11:45:20.014Z,31.48
2018-08-06T11:47:46.463Z,31.35
2018-08-06T11:50:12.575Z,31.44
2018-08-06T11:52:38.681Z,31.46
2018-08-06T11:55:04.859Z,31.47
2018-08-06T11:57:30.955Z,31.42
2018-08-06T11:59:57.112Z,30.99
2018-08-06T12:02:23.204Z,31.17
2018-08-06T12:04:49.451Z,31.52
2018-08-06T12:07:15.938Z,31.39
2018-08-06T12:09:42.038Z,31.34
2018-08-06T12:12:08.165Z,31.44
2018-08-06T12:14:34.339Z,31.45
2018-08-06T12:17:01.082Z,31.48
2018-08-06T12:19:27.599Z,31.48
2018-08-06T12:21:53.714Z,31.66
2018-08-06T12:24:21.022Z,31.62
2018-08-06T12:26:47.958Z,31.58
2018-08-06T12:29:14.926Z,31.50
2018-08-06T12:31:42.264Z,31.51
2018-08-06T12:49:17.193Z,31.40
2018-08-06T12:51:43.395Z,31.39
2018-08-06T12:54:09.934Z,31.35
2018-08-06T12:56:36.193Z,31.12
2018-08-06T12:59:03.330Z,30.75
2018-08-06T13:01:30.491Z,30.68
2018-08-06T13:03:57.254Z,30.89
2018-08-06T13:06:23.985Z,31.40
2018-08-06T13:08:50.350Z,31.59
2018-08-06T13:11:16.717Z,31.67
2018-08-06T13:13:42.901Z,31.78
2018-08-06T13:16:09.037Z,31.75
2018-08-06T13:18:36.571Z,31.79
2018-08-06T13:21:02.703Z,31.85
2018-08-06T13:23:29.862Z,31.81
2018-08-06T13:25:56.116Z,31.69
2018-08-06T13:28:22.306Z,31.78
2018-08-06T13:30:48.604Z,31.80
2018-08-06T13:48:26.893Z,30.27
2018-08-06T13:50:52.975Z,30.48
2018-08-06T13:53:19.091Z,30.78
2018-08-06T13:55:45.542Z,30.57
2018-08-06T13:58:11.739Z,30.90
2018-08-06T14:00:38.106Z,31.10
2018-08-06T14:03:04.289Z,31.47
2018-08-06T14:05:30.835Z,31.69
2018-08-06T14:07:56.898Z,31.67
2018-08-06T14:10:22.970Z,31.41
2018-08-06T14:12:49.054Z,31.53
2018-08-06T14:15:15.095Z,31.12
2018-08-06T14:17:41.179Z,31.14
2018-08-06T14:20:07.209Z,31.45
2018-08-06T14:22:33.319Z,31.65
2018-08-06T14:24:59.470Z,31.73
2018-08-06T14:27:25.549Z,31.81
2018-08-06T14:29:51.751Z,31.87
2018-08-06T14:32:17.856Z,31.89
2018-08-06T14:34:43.963Z,31.33
2018-08-06T14:37:10.081Z,31.00
2018-08-06T14:39:36.133Z,31.28
2018-08-06T14:42:02.212Z,31.45
2018-08-06T14:44:28.369Z,30.72
2018-08-06T14:46:54.454Z,30.99
2018-08-06T14:49:20.585Z,31.08
2018-08-06T14:51:46.704Z,31.41
2018-08-06T14:54:12.847Z,31.67
2018-08-06T14:56:38.917Z,31.60
2018-08-06T14:59:04.959Z,31.80
2018-08-06T15:01:30.998Z,31.81
2018-08-06T15:03:57.045Z,31.53
2018-08-06T15:06:23.087Z,31.47
2018-08-06T15:08:49.270Z,31.75
2018-08-06T15:11:15.502Z,31.82
2018-08-06T15:13:41.720Z,31.85
2018-08-06T15:16:07.838Z,31.90
2018-08-06T15:18:33.924Z,31.92
2018-08-06T15:21:00.050Z,31.56
2018-08-06T15:23:26.177Z,31.77
2018-08-06T15:25:52.375Z,31.78
2018-08-06T15:28:18.482Z,31.85
2018-08-06T15:30:44.584Z,31.92
2018-08-06T15:33:10.806Z,31.95
2018-08-06T15:35:36.903Z,31.80
2018-08-06T15:38:03.162Z,31.59
2018-08-06T15:40:29.356Z,31.32
2018-08-06T15:42:55.386Z,31.43
2018-08-06T15:45:21.452Z,31.51
2018-08-06T15:47:48.446Z,30.56
2018-08-06T15:50:14.556Z,30.96
2018-08-06T15:52:40.619Z,31.26
2018-08-06T15:55:06.779Z,30.91
2018-08-06T15:57:32.810Z,30.94
2018-08-06T16:02:31.299Z,31.58
2018-08-06T16:04:57.402Z,31.63
2018-08-06T16:07:23.740Z,31.73
2018-08-06T16:09:49.952Z,31.71
2018-08-06T16:12:16.123Z,31.74
2018-08-06T16:14:42.445Z,31.60
2018-08-06T16:17:08.567Z,31.31
2018-08-06T16:19:34.711Z,31.45
2018-08-06T16:22:01.198Z,31.13
2018-08-06T16:24:27.328Z,30.79
2018-08-06T16:26:53.450Z,31.36
2018-08-06T16:29:19.485Z,31.61
2018-08-06T16:31:46.236Z,31.70
2018-08-06T16:34:12.266Z,31.84
2018-08-06T16:36:38.320Z,31.90
2018-08-06T16:39:04.353Z,31.96
2018-08-06T16:41:30.432Z,31.55
2018-08-06T16:43:56.474Z,31.21
2018-08-06T16:46:22.606Z,31.47
2018-08-06T16:48:48.645Z,31.76
2018-08-06T16:51:14.667Z,31.86
2018-08-06T16:53:40.688Z,31.60
2018-08-06T16:56:06.772Z,31.75
2018-08-06T16:58:32.816Z,31.52
2018-08-06T17:00:59.019Z,31.61
2018-08-06T17:03:24.975Z,31.76
2018-08-06T17:05:51.033Z,31.49
2018-08-06T17:08:17.158Z,31.86
2018-08-06T17:10:43.226Z,31.89
2018-08-06T17:13:09.344Z,31.04
2018-08-06T17:15:35.440Z,30.97
2018-08-06T17:18:01.523Z,30.73
2018-08-06T17:20:28.631Z,31.08
2018-08-06T17:22:54.686Z,31.38
2018-08-06T17:25:20.750Z,31.11
2018-08-06T17:27:46.861Z,30.96
2018-08-06T17:50:23.217Z,31.22
2018-08-06T17:52:49.343Z,31.28
2018-08-06T17:55:15.456Z,31.45
2018-08-06T17:57:41.519Z,31.61
2018-08-06T18:00:07.623Z,31.46
2018-08-06T18:02:33.714Z,31.47
2018-08-06T18:04:59.783Z,31.48
2018-08-06T18:07:25.898Z,31.34
2018-08-06T18:09:51.970Z,31.16
2018-08-06T18:12:18.032Z,31.06
2018-08-06T18:17:18.211Z,30.59
2018-08-06T18:24:50.815Z,30.84
2018-08-06T18:27:16.916Z,30.83
2018-08-06T18:29:43.011Z,30.62
2018-08-06T18:34:41.426Z,31.03
2018-08-06T18:37:07.554Z,31.16
2018-08-06T18:39:33.664Z,31.42
2018-08-06T18:41:59.825Z,31.04
2018-08-06T18:46:58.288Z,31.12
2018-08-06T18:49:24.375Z,30.74
2018-08-06T18:51:50.425Z,30.83
2018-08-06T18:54:16.518Z,30.80
2018-08-06T18:56:42.685Z,31.08
2018-08-06T18:59:08.775Z,30.98
2018-08-06T19:01:34.919Z,30.54
2018-08-06T19:04:01.015Z,30.76
2018-08-06T19:06:27.060Z,31.31
2018-08-06T19:08:53.176Z,31.52
2018-08-06T19:28:59.139Z,31.29
2018-08-06T19:33:56.988Z,31.19
2018-08-06T19:36:28.873Z,31.20
2018-08-06T19:38:55.028Z,31.18
2018-08-06T19:41:21.063Z,31.16
2018-08-06T19:43:47.117Z,30.97
2018-08-06T19:46:13.196Z,31.10
2018-08-06T20:06:18.545Z,30.88
2018-08-06T20:28:56.338Z,30.54
2018-08-06T20:31:22.410Z,30.72
2018-08-06T20:33:48.466Z,30.43
2018-08-06T20:38:49.278Z,30.49
2018-08-06T20:41:15.298Z,30.61
2018-08-06T20:43:41.313Z,30.53
2018-08-06T20:46:07.386Z,30.10
2018-08-06T20:48:33.511Z,30.24
2018-08-06T20:50:59.504Z,30.21
2018-08-06T20:53:25.548Z,30.09
2018-08-06T20:55:51.665Z,30.38
2018-08-06T21:31:07.878Z,28.92
2018-08-06T21:33:34.052Z,29.33
2018-08-06T21:36:00.141Z,29.35
2018-08-06T21:38:26.195Z,29.42
2018-08-06T21:40:52.315Z,29.61
2018-08-06T21:43:18.476Z,29.69
2018-08-06T21:45:44.604Z,29.60
2018-08-06T21:48:10.633Z,29.74
2018-08-06T21:50:36.824Z,29.74
2018-08-06T21:53:02.827Z,29.40
2018-08-06T21:55:29.043Z,29.43
2018-08-06T21:57:55.100Z,29.39
